Kaami — C6VO9 — position and weather

sailwx.info

Track history (hours):
 
Tides and Currents Weather Stations Pressure Air Temp Water Temp Dewpoint Dewpoint Depression Visibility Wind Speed Wind Dir Waves Ship Positions

Kaami

Last reported at 2015-May-22 10:33 UTC. Time now 2015-May-22 14:32 UTC.
Position N 49°47' E 000°07'.

Length 90 m; draft 4.9 m.

Type: Cargo ship. MMSI: 308542000.

Date/timePositionNaut miles runAvg speedWind from/ knotsBaromVisibWave heightAir tempDewpointWater temp
2015-May-22 10:33N 49°47' E 000°07'1211.7
2015-May-22 09:33N 49°37' W 000°03'8 7.7
2015-May-22 08:33N 49°29' W 000°04'1010.0
2015-May-22 07:33N 49°26' E 000°10'1312.5
2015-May-22 06:33N 49°29' E 000°29'8 8.3
2015-May-22 05:32N 49°31' E 000°41'10 0.3
2015-May-21 00:23N 49°28' E 000°56'5 6.0
2015-May-20 23:28N 49°26' E 000°48'6 6.5
2015-May-20 22:33N 49°29' E 000°40'1010.0
2015-May-20 21:33N 49°27' E 000°25'1514.6
2015-May-20 20:34N 49°27' E 000°03'1212.2
2015-May-20 19:33N 49°30' W 000°16'1211.8
2015-May-20 18:33N 49°31' W 000°34'1110.9
2015-May-20 17:34N 49°32' W 000°50'  
2015-May-17 14:31N 49°48' W 001°15'8 7.5
2015-May-17 13:31N 49°48' W 001°27'303 7.3
2015-May-15 20:18N 54°14' W 005°22'7 9.8
2015-May-15 19:33N 54°22' W 005°21'1110.8
2015-May-15 18:33N 54°32' W 005°23'1111.3
2015-May-15 17:33N 54°42' W 005°32'5 5.1
2015-May-15 16:33N 54°41' W 005°41'0 0.0
2015-May-15 15:30N 54°41' W 005°41'0 0.0
2015-May-15 14:33N 54°41' W 005°41'0 0.0
2015-May-15 13:33N 54°41' W 005°41'0 0.0
2015-May-15 12:27N 54°41' W 005°41'0 0.0
2015-May-15 11:27N 54°41' W 005°41'0 0.0
2015-May-15 10:33N 54°41' W 005°41'0 0.0
2015-May-15 09:33N 54°41' W 005°41'0 0.0
2015-May-15 08:33N 54°41' W 005°41'0 0.0
2015-May-15 07:33N 54°41' W 005°41'0 0.1
2015-May-15 06:30N 54°41' W 005°41'0 0.0
2015-May-15 05:33N 54°41' W 005°41'0 0.1
2015-May-15 04:27N 54°41' W 005°41'0 0.0
2015-May-15 03:27N 54°41' W 005°41'0 0.0
2015-May-15 02:33N 54°41' W 005°41'0 0.0
2015-May-15 01:33N 54°41' W 005°41'0 0.0
2015-May-15 00:33N 54°41' W 005°41'0 0.0
2015-May-14 23:33N 54°41' W 005°41'0 0.0
2015-May-14 22:33N 54°41' W 005°41'0 0.0
2015-May-14 21:33N 54°41' W 005°41'0 0.0
2015-May-14 20:33N 54°41' W 005°41'0 0.0
2015-May-14 19:33N 54°41' W 005°41'0 0.0
2015-May-14 18:30N 54°41' W 005°41'0 0.0
2015-May-14 17:30N 54°41' W 005°41'0 0.0
2015-May-14 16:33N 54°41' W 005°41'0 0.0
2015-May-14 15:33N 54°41' W 005°41'0 0.0
2015-May-14 14:33N 54°41' W 005°41'0 0.0
2015-May-14 13:33N 54°41' W 005°41'0 0.0
2015-May-14 12:33N 54°41' W 005°41'0 0.0
2015-May-14 11:33N 54°41' W 005°41'0 0.0
2015-May-14 10:30N 54°41' W 005°41'0 0.1
2015-May-14 09:33N 54°41' W 005°41'0 0.0
2015-May-14 08:32N 54°41' W 005°41'0 0.0
2015-May-14 07:32N 54°41' W 005°41'0 0.0
2015-May-14 06:32N 54°41' W 005°41'0 0.0
2015-May-14 05:32N 54°41' W 005°41'0 0.0
2015-May-14 04:32N 54°41' W 005°41'0 0.0
2015-May-14 03:32N 54°41' W 005°41'0 0.0
2015-May-14 02:29N 54°41' W 005°41'0 0.1
2015-May-14 01:32N 54°41' W 005°41'0 0.1
2015-May-14 00:32N 54°41' W 005°41'0 0.0
2015-May-13 23:32N 54°41' W 005°41'0 0.0
2015-May-13 22:32N 54°41' W 005°41'0 0.0
2015-May-13 21:32N 54°41' W 005°41'0 0.0
2015-May-13 20:32N 54°41' W 005°41'0 0.0
2015-May-13 19:32N 54°41' W 005°41'0 0.0
2015-May-13 18:32N 54°41' W 005°41'0 0.0
2015-May-13 17:32N 54°41' W 005°41'0 0.0
2015-May-13 16:26N 54°41' W 005°41'0 0.0
2015-May-13 15:32N 54°41' W 005°41'0 0.0
2015-May-13 14:32N 54°41' W 005°41'0 0.0
2015-May-13 13:32N 54°41' W 005°41'0 0.0
2015-May-13 12:32N 54°41' W 005°41'0 0.0
2015-May-13 11:29N 54°41' W 005°41'0 0.0
2015-May-13 10:26N 54°41' W 005°41'0 0.0
2015-May-13 09:32N 54°41' W 005°41'0 0.0
2015-May-13 08:32N 54°41' W 005°41'0 0.0
2015-May-13 07:32N 54°41' W 005°41'0 0.0
2015-May-13 06:32N 54°41' W 005°41'0 0.0
2015-May-13 05:32N 54°41' W 005°41'0 0.0
2015-May-13 04:32N 54°41' W 005°41'0 0.0
2015-May-13 03:32N 54°41' W 005°41'0 0.0
2015-May-13 02:32N 54°41' W 005°41'0 0.0
2015-May-13 01:32N 54°41' W 005°41'0 0.0
2015-May-13 00:32N 54°41' W 005°41'0 0.0
2015-May-12 23:29N 54°41' W 005°41'0 0.0
2015-May-12 22:32N 54°41' W 005°41'0 0.0
2015-May-12 21:28N 54°41' W 005°41'0 0.0
2015-May-12 20:31N 54°41' W 005°41'0 0.0
2015-May-12 19:31N 54°41' W 005°41'0 0.0
2015-May-12 18:28N 54°41' W 005°41'0 0.0
2015-May-12 17:31N 54°41' W 005°41'0 0.0
2015-May-12 16:31N 54°41' W 005°41'0 0.0
2015-May-12 15:31N 54°41' W 005°41'0 0.0
2015-May-12 14:31N 54°41' W 005°41'0 0.0
2015-May-12 13:28N 54°41' W 005°41'0 0.0
2015-May-12 12:31N 54°41' W 005°41'4 4.2
2015-May-12 11:31N 54°41' W 005°48'  
Track history (hours):
 
Tides and Currents Weather Stations Pressure Air Temp Water Temp Dewpoint Dewpoint Depression Visibility Wind Speed Wind Dir Waves Ship Positions

Kaami

Last reported at 2015-May-22 10:33 UTC. Time now 2015-May-22 14:32 UTC.
Position N 49°47' E 000°07'.

Length 90 m; draft 4.9 m.

Type: Cargo ship. MMSI: 308542000.

Date/timePositionNaut miles runAvg speedWind from/ knotsBaromVisibWave heightAir tempDewpointWater temp
2015-May-22 10:33N 49°47' E 000°07'1211.7
2015-May-22 09:33N 49°37' W 000°03'8 7.7
2015-May-22 08:33N 49°29' W 000°04'1010.0
2015-May-22 07:33N 49°26' E 000°10'1312.5
2015-May-22 06:33N 49°29' E 000°29'8 8.3
2015-May-22 05:32N 49°31' E 000°41'10 0.3
2015-May-21 00:23N 49°28' E 000°56'5 6.0
2015-May-20 23:28N 49°26' E 000°48'6 6.5
2015-May-20 22:33N 49°29' E 000°40'1010.0
2015-May-20 21:33N 49°27' E 000°25'1514.6
2015-May-20 20:34N 49°27' E 000°03'1212.2
2015-May-20 19:33N 49°30' W 000°16'1211.8
2015-May-20 18:33N 49°31' W 000°34'1110.9
2015-May-20 17:34N 49°32' W 000°50'  
2015-May-17 14:31N 49°48' W 001°15'8 7.5
2015-May-17 13:31N 49°48' W 001°27'303 7.3
2015-May-15 20:18N 54°14' W 005°22'7 9.8
2015-May-15 19:33N 54°22' W 005°21'1110.8
2015-May-15 18:33N 54°32' W 005°23'1111.3
2015-May-15 17:33N 54°42' W 005°32'5 5.1
2015-May-15 16:33N 54°41' W 005°41'0 0.0
2015-May-15 15:30N 54°41' W 005°41'0 0.0
2015-May-15 14:33N 54°41' W 005°41'0 0.0
2015-May-15 13:33N 54°41' W 005°41'0 0.0
2015-May-15 12:27N 54°41' W 005°41'0 0.0
2015-May-15 11:27N 54°41' W 005°41'0 0.0
2015-May-15 10:33N 54°41' W 005°41'0 0.0
2015-May-15 09:33N 54°41' W 005°41'0 0.0
2015-May-15 08:33N 54°41' W 005°41'0 0.0
2015-May-15 07:33N 54°41' W 005°41'0 0.1
2015-May-15 06:30N 54°41' W 005°41'0 0.0
2015-May-15 05:33N 54°41' W 005°41'0 0.1
2015-May-15 04:27N 54°41' W 005°41'0 0.0
2015-May-15 03:27N 54°41' W 005°41'0 0.0
2015-May-15 02:33N 54°41' W 005°41'0 0.0
2015-May-15 01:33N 54°41' W 005°41'0 0.0
2015-May-15 00:33N 54°41' W 005°41'0 0.0
2015-May-14 23:33N 54°41' W 005°41'0 0.0
2015-May-14 22:33N 54°41' W 005°41'0 0.0
2015-May-14 21:33N 54°41' W 005°41'0 0.0
2015-May-14 20:33N 54°41' W 005°41'0 0.0
2015-May-14 19:33N 54°41' W 005°41'0 0.0
2015-May-14 18:30N 54°41' W 005°41'0 0.0
2015-May-14 17:30N 54°41' W 005°41'0 0.0
2015-May-14 16:33N 54°41' W 005°41'0 0.0
2015-May-14 15:33N 54°41' W 005°41'0 0.0
2015-May-14 14:33N 54°41' W 005°41'0 0.0
2015-May-14 13:33N 54°41' W 005°41'0 0.0
2015-May-14 12:33N 54°41' W 005°41'0 0.0
2015-May-14 11:33N 54°41' W 005°41'0 0.0
2015-May-14 10:30N 54°41' W 005°41'0 0.1
2015-May-14 09:33N 54°41' W 005°41'0 0.0
2015-May-14 08:32N 54°41' W 005°41'0 0.0
2015-May-14 07:32N 54°41' W 005°41'0 0.0
2015-May-14 06:32N 54°41' W 005°41'0 0.0
2015-May-14 05:32N 54°41' W 005°41'0 0.0
2015-May-14 04:32N 54°41' W 005°41'0 0.0
2015-May-14 03:32N 54°41' W 005°41'0 0.0
2015-May-14 02:29N 54°41' W 005°41'0 0.1
2015-May-14 01:32N 54°41' W 005°41'0 0.1
2015-May-14 00:32N 54°41' W 005°41'0 0.0
2015-May-13 23:32N 54°41' W 005°41'0 0.0
2015-May-13 22:32N 54°41' W 005°41'0 0.0
2015-May-13 21:32N 54°41' W 005°41'0 0.0
2015-May-13 20:32N 54°41' W 005°41'0 0.0
2015-May-13 19:32N 54°41' W 005°41'0 0.0
2015-May-13 18:32N 54°41' W 005°41'0 0.0
2015-May-13 17:32N 54°41' W 005°41'0 0.0
2015-May-13 16:26N 54°41' W 005°41'0 0.0
2015-May-13 15:32N 54°41' W 005°41'0 0.0
2015-May-13 14:32N 54°41' W 005°41'0 0.0
2015-May-13 13:32N 54°41' W 005°41'0 0.0
2015-May-13 12:32N 54°41' W 005°41'0 0.0
2015-May-13 11:29N 54°41' W 005°41'0 0.0
2015-May-13 10:26N 54°41' W 005°41'0 0.0
2015-May-13 09:32N 54°41' W 005°41'0 0.0
2015-May-13 08:32N 54°41' W 005°41'0 0.0
2015-May-13 07:32N 54°41' W 005°41'0 0.0
2015-May-13 06:32N 54°41' W 005°41'0 0.0
2015-May-13 05:32N 54°41' W 005°41'0 0.0
2015-May-13 04:32N 54°41' W 005°41'0 0.0
2015-May-13 03:32N 54°41' W 005°41'0 0.0
2015-May-13 02:32N 54°41' W 005°41'0 0.0
2015-May-13 01:32N 54°41' W 005°41'0 0.0
2015-May-13 00:32N 54°41' W 005°41'0 0.0
2015-May-12 23:29N 54°41' W 005°41'0 0.0
2015-May-12 22:32N 54°41' W 005°41'0 0.0
2015-May-12 21:28N 54°41' W 005°41'0 0.0
2015-May-12 20:31N 54°41' W 005°41'0 0.0
2015-May-12 19:31N 54°41' W 005°41'0 0.0
2015-May-12 18:28N 54°41' W 005°41'0 0.0
2015-May-12 17:31N 54°41' W 005°41'0 0.0
2015-May-12 16:31N 54°41' W 005°41'0 0.0
2015-May-12 15:31N 54°41' W 005°41'0 0.0
2015-May-12 14:31N 54°41' W 005°41'0 0.0
2015-May-12 13:28N 54°41' W 005°41'0 0.0
2015-May-12 12:31N 54°41' W 005°41'4 4.2
2015-May-12 11:31N 54°41' W 005°48'  

Dump ship's entire track history